Mystic, Missouri
Current Conditions -  °F | °C
As of 6:19 AM on Friday 19 Dec 2014 (Local Time) from KIRK Reporting Station
Overcast Overcast  
Wind Chill: -2°   Ceiling: 2600
Heat Index: -2°   Visibility: 7mi
Dew Point: -3°   Wind: 0mph
Humidity: 89%   Direction: NA
Pressure: 30.27"   Gusts: NA
Location:  40.2455°N, 92.9523°W
Report Text: KIRK 191219Z AUTO 00000KT 7SM SCT008 OVC026 M02/M03 A3027 RMK AO2 T10171033
Loading
Personal Weather Stations






























Interactive Weather Map New forecast layout! Learn more

10-Day Weather Forecast

Advertisements
Track Severe Weather on mobile